Huvudsida
METAR-TAF:

METAR-TAF

Flygplatser :

Djibouti, Djibouti

latitud: 11-33N, longitud: 043-10E, höjd: 49 m

Aktuellt väderrapport

Denna rapport gjordes för 11 timmar och 8 minuter sedan, klockan 06:00 UTC
Vind 4 kt från ost
Temperatur 30°C
Fuktighet 70%
Tryck 1013 hPa
Sikt 10 km eller mer
Spridda moln på en höjd av 2300 ft

METAR: HDAM 180600Z 10004KT 9999 SCT023 30/24 Q1013

Tid: 20:08 (17:08 UTC)

Väderprognos

Denna rapport gjordes för 12 timmar och 8 minuter sedan, klockan 05:00 UTC
Prognos gäller från 18 kl. 06 UTC till 19 kl. 06 UTC
Vind 12 kt från ost
Brutna moln på en höjd av 2300 ft
Spridda moln på en höjd av 3000 ft
Blir
från 18 kl. 15 UTC till 18 kl. 18 UTC
Vind 5 kt varierande vindriktning
Spridda moln på en höjd av 2000 ft
Blir
från 19 kl. 00 UTC till 19 kl. 06 UTC
Vind kt från nord
Spridda moln på en höjd av 2000 ft

TAF: HDAM 180500Z 1806/1906 08012KT 9/9 BKN023 SCT030 BECMG 1815/1818 VRB05KT SCT020 BECMG 1900/1906 00000KT SCT020

Aktuella väderrapporter och prognoser från 4000 flygplatser (METAR- och TAF-rapporter).

De tillgängliga stationerna syns som gula och röda prickar på kartan.

För musen över prickarna för att se namnen på stationerna.

Klicka sedan för att få väderrapporter och prognoser.

För att ändra kartan: Klicka på de gröna knapparna med ett svart kors på för att zooma in; den gröna knappen med ett streck på för att zooma ut; eller på de gröna pilarna för angränsande kartor.


METAR-TAF: